Terminal Aerodrome Forecast
Issued by NWS

Home | Current Version | Previous Version | Text Only | Print | Product List | Glossary On
Versions: 1 2 3 4 5 6 7 8 9 10 11 12 13 14 15 16 17
000
FTUS44 KTSA 181742
TAFFYV
TAF
KFYV 181742Z 1818/1918 25006KT P6SM SKC
     FM190100 20004KT P6SM SCT025
     FM190600 19005KT 5SM BR BKN010
     FM190800 20005KT 3SM BR OVC008
     FM191500 19003KT 4SM BR OVC008=

USA.gov is the U.S. government's official web portal to all federal, state and local government web resources and services.